createdAt,value
2023-05-05T00:00:52.748Z,40.51
2023-05-05T00:01:52.738Z,40.47
2023-05-05T00:02:52.777Z,40.52
2023-05-05T00:03:52.778Z,40.47
2023-05-05T00:04:52.651Z,40.42
2023-05-05T00:05:52.644Z,40.40
2023-05-05T00:06:53.590Z,40.38
2023-05-05T00:07:52.625Z,40.35
2023-05-05T00:08:52.619Z,40.32
2023-05-05T00:09:52.608Z,40.26
2023-05-05T00:10:52.636Z,40.26
2023-05-05T00:11:52.617Z,40.30
2023-05-05T00:12:52.681Z,40.23
2023-05-05T00:13:52.577Z,40.20
2023-05-05T00:14:52.567Z,40.18
2023-05-05T00:15:52.567Z,40.10
2023-05-05T00:16:52.596Z,40.10
2023-05-05T00:17:52.667Z,40.08
2023-05-05T00:18:52.545Z,40.06
2023-05-05T00:19:52.531Z,39.94
2023-05-05T00:20:52.525Z,39.99
2023-05-05T00:21:52.520Z,39.99
2023-05-05T00:22:52.519Z,39.94
2023-05-05T00:23:52.508Z,39.92
2023-05-05T00:24:52.495Z,39.88
2023-05-05T00:25:52.480Z,39.88
2023-05-05T00:26:52.533Z,39.86
2023-05-05T00:27:52.474Z,39.83
2023-05-05T00:28:52.474Z,39.81
2023-05-05T00:29:52.455Z,39.78
2023-05-05T00:30:52.512Z,39.76
2023-05-05T00:31:52.466Z,39.77
2023-05-05T00:32:52.518Z,39.70
2023-05-05T00:33:52.496Z,39.69
2023-05-05T00:34:52.520Z,39.70
2023-05-05T00:35:52.539Z,39.63
2023-05-05T00:36:52.527Z,39.68
2023-05-05T00:37:52.566Z,39.65
2023-05-05T00:38:52.565Z,39.61
2023-05-05T00:39:52.598Z,39.60
2023-05-05T00:40:52.616Z,39.58
2023-05-05T00:41:52.666Z,39.60
2023-05-05T00:42:52.678Z,39.57
2023-05-05T00:43:52.650Z,39.60
2023-05-05T00:44:52.643Z,39.47
2023-05-05T00:45:52.661Z,39.55
2023-05-05T00:46:52.696Z,39.50
2023-05-05T00:47:52.729Z,39.50
2023-05-05T00:48:52.703Z,39.52
2023-05-05T00:49:52.672Z,39.49
2023-05-05T00:50:52.674Z,39.48
2023-05-05T00:51:52.646Z,39.49
2023-05-05T00:52:52.708Z,39.46
2023-05-05T00:53:52.673Z,39.45
2023-05-05T00:54:52.695Z,39.39
2023-05-05T00:55:52.688Z,39.41
2023-05-05T00:56:52.672Z,39.41
2023-05-05T00:57:52.681Z,39.40
2023-05-05T00:58:52.713Z,39.36
2023-05-05T00:59:52.751Z,39.37
2023-05-05T01:00:52.793Z,39.35
2023-05-05T01:01:52.798Z,39.31
2023-05-05T01:02:52.982Z,39.33
2023-05-05T01:03:52.982Z,39.31
2023-05-05T01:04:52.789Z,39.30
2023-05-05T01:05:52.818Z,39.27
2023-05-05T01:06:52.815Z,39.25
2023-05-05T01:07:52.828Z,39.23
2023-05-05T01:08:52.844Z,39.22
2023-05-05T01:10:01.026Z,39.22
2023-05-05T01:10:52.917Z,39.22
2023-05-05T01:11:52.846Z,39.22
2023-05-05T01:12:52.899Z,39.16
2023-05-05T01:13:52.839Z,39.25
2023-05-05T01:14:52.852Z,39.15
2023-05-05T01:15:52.838Z,39.22
2023-05-05T01:16:52.808Z,39.19
2023-05-05T01:17:52.864Z,39.16
2023-05-05T01:18:52.796Z,39.13
2023-05-05T01:19:52.786Z,39.14
2023-05-05T01:20:52.785Z,39.13
2023-05-05T01:21:52.777Z,39.10
2023-05-05T01:22:52.777Z,39.13
2023-05-05T01:23:52.768Z,39.13
2023-05-05T01:24:52.753Z,39.10
2023-05-05T01:25:52.770Z,39.07
2023-05-05T01:26:52.751Z,39.10
2023-05-05T01:27:52.734Z,39.08
2023-05-05T01:28:52.739Z,39.04
2023-05-05T01:29:52.720Z,39.04
2023-05-05T01:30:52.758Z,39.03
2023-05-05T01:31:52.725Z,39.03
2023-05-05T01:32:52.759Z,38.99
2023-05-05T01:33:52.693Z,38.97
2023-05-05T01:34:52.681Z,38.96
2023-05-05T01:35:52.693Z,38.93
2023-05-05T01:36:52.686Z,38.95
2023-05-05T01:37:52.684Z,38.95
2023-05-05T01:38:52.656Z,38.92
2023-05-05T01:39:52.646Z,38.94
2023-05-05T01:40:52.661Z,38.90
2023-05-05T01:41:52.632Z,38.92
2023-05-05T01:42:52.629Z,38.91
2023-05-05T01:43:52.624Z,38.90
2023-05-05T01:44:52.616Z,38.88
2023-05-05T01:45:52.629Z,38.89
2023-05-05T01:46:52.619Z,38.90
2023-05-05T01:47:52.674Z,38.90
2023-05-05T01:48:52.583Z,38.84
2023-05-05T01:49:52.617Z,38.85
2023-05-05T01:50:52.614Z,38.84
2023-05-05T01:51:52.560Z,38.82
2023-05-05T01:52:52.548Z,38.85
2023-05-05T01:53:52.548Z,38.82
2023-05-05T01:54:52.533Z,38.85
2023-05-05T01:55:52.527Z,38.78
2023-05-05T01:56:52.516Z,38.78
2023-05-05T01:57:52.517Z,38.79
2023-05-05T01:58:52.505Z,38.79
2023-05-05T01:59:52.508Z,38.78
2023-05-05T02:00:52.498Z,38.80
2023-05-05T02:01:52.481Z,38.75
2023-05-05T02:02:52.568Z,38.79
2023-05-05T02:03:52.470Z,38.73
2023-05-05T02:04:52.469Z,38.73
2023-05-05T02:05:52.457Z,38.77
2023-05-05T02:06:52.485Z,38.72
2023-05-05T02:07:52.441Z,38.74
2023-05-05T02:08:52.432Z,38.73
2023-05-05T02:09:52.428Z,38.69
2023-05-05T02:10:52.461Z,38.73
2023-05-05T02:11:52.420Z,38.68
2023-05-05T02:12:52.437Z,38.68
2023-05-05T02:13:52.442Z,38.63
2023-05-05T02:14:52.400Z,38.64
2023-05-05T02:15:52.416Z,38.65
2023-05-05T02:16:52.391Z,38.63
2023-05-05T02:17:52.413Z,38.63
2023-05-05T02:18:52.394Z,38.61
2023-05-05T02:19:52.375Z,38.60
2023-05-05T02:20:52.359Z,38.61
2023-05-05T02:21:52.350Z,38.64
2023-05-05T02:22:52.341Z,38.63
2023-05-05T02:23:52.342Z,38.54
2023-05-05T02:24:52.330Z,38.61
2023-05-05T02:25:52.334Z,38.59
2023-05-05T02:26:52.330Z,38.57
2023-05-05T02:27:52.313Z,38.57
2023-05-05T02:28:52.303Z,38.54
2023-05-05T02:29:52.290Z,38.53
2023-05-05T02:30:52.287Z,38.55
2023-05-05T02:31:52.519Z,38.58
2023-05-05T02:32:52.333Z,38.51
2023-05-05T02:33:52.271Z,38.49
2023-05-05T02:34:52.286Z,38.46
2023-05-05T02:35:52.261Z,38.48
2023-05-05T02:36:52.245Z,38.47
2023-05-05T02:37:52.235Z,38.49
2023-05-05T02:38:52.229Z,38.51
2023-05-05T02:39:52.221Z,38.50
2023-05-05T02:40:52.245Z,38.49
2023-05-05T02:41:52.211Z,38.48
2023-05-05T02:42:52.226Z,38.48
2023-05-05T02:43:52.203Z,38.43
2023-05-05T02:44:52.186Z,38.46
2023-05-05T02:45:52.198Z,38.46
2023-05-05T02:46:52.273Z,38.44
2023-05-05T02:47:52.208Z,38.43
2023-05-05T02:48:52.164Z,38.41
2023-05-05T02:49:52.155Z,38.44
2023-05-05T02:50:52.183Z,38.41
2023-05-05T02:51:52.139Z,38.41
2023-05-05T02:52:52.137Z,38.39
2023-05-05T02:53:52.126Z,38.43
2023-05-05T02:54:52.121Z,38.43
2023-05-05T02:55:52.120Z,38.38
2023-05-05T02:56:52.107Z,38.35
2023-05-05T02:57:52.097Z,38.38
2023-05-05T02:58:52.094Z,38.35
2023-05-05T02:59:52.081Z,38.33
2023-05-05T03:00:52.081Z,38.32
2023-05-05T03:01:52.160Z,38.30
2023-05-05T03:02:52.128Z,38.28
2023-05-05T03:03:52.189Z,38.32
2023-05-05T03:04:52.041Z,38.26
2023-05-05T03:05:52.043Z,38.29
2023-05-05T03:06:52.084Z,38.26
2023-05-05T03:07:52.022Z,38.28
2023-05-05T03:08:52.030Z,38.24
2023-05-05T03:09:52.016Z,38.24
2023-05-05T03:10:52.012Z,38.23
2023-05-05T03:11:52.046Z,38.20
2023-05-05T03:12:52.006Z,38.22
2023-05-05T03:13:51.986Z,38.23
2023-05-05T03:14:51.975Z,38.20
2023-05-05T03:15:51.977Z,38.18
2023-05-05T03:16:52.042Z,38.18
2023-05-05T03:17:52.005Z,38.15
2023-05-05T03:18:51.958Z,38.18
2023-05-05T03:19:51.957Z,38.13
2023-05-05T03:20:51.938Z,38.17
2023-05-05T03:21:51.939Z,38.14
2023-05-05T03:22:51.944Z,38.15
2023-05-05T03:23:51.917Z,38.13
2023-05-05T03:24:51.919Z,38.11
2023-05-05T03:25:51.949Z,38.08
2023-05-05T03:26:51.906Z,38.11
2023-05-05T03:27:51.891Z,38.07
2023-05-05T03:28:51.878Z,38.05
2023-05-05T03:29:51.866Z,38.02
2023-05-05T03:30:51.857Z,38.02
2023-05-05T03:31:51.898Z,37.98
2023-05-05T03:32:51.881Z,37.95
2023-05-05T03:33:51.840Z,37.97
2023-05-05T03:34:51.836Z,37.95
2023-05-05T03:35:51.825Z,37.90
2023-05-05T03:36:51.823Z,37.95
2023-05-05T03:37:51.818Z,37.89
2023-05-05T03:38:51.856Z,37.90
2023-05-05T03:39:51.794Z,37.92
2023-05-05T03:40:51.800Z,37.94
2023-05-05T03:41:51.803Z,37.84
2023-05-05T03:42:51.785Z,37.93
2023-05-05T03:43:51.777Z,37.89
2023-05-05T03:44:51.768Z,37.90
2023-05-05T03:45:51.771Z,37.86
2023-05-05T03:46:51.750Z,37.89
2023-05-05T03:47:51.815Z,37.88
2023-05-05T03:48:51.777Z,37.88
2023-05-05T03:49:51.729Z,37.85
2023-05-05T03:50:51.720Z,37.89
2023-05-05T03:51:51.709Z,37.85
2023-05-05T03:52:51.699Z,37.86
2023-05-05T03:53:51.721Z,37.88
2023-05-05T03:54:51.741Z,37.89
2023-05-05T03:55:51.695Z,37.86
2023-05-05T03:56:51.686Z,37.88
2023-05-05T03:57:51.679Z,37.80
2023-05-05T03:58:51.661Z,37.85
2023-05-05T03:59:51.657Z,37.85
2023-05-05T04:00:51.649Z,37.81
2023-05-05T04:01:51.651Z,37.80
2023-05-05T04:02:51.713Z,37.79
2023-05-05T04:03:51.689Z,37.75
2023-05-05T04:04:51.621Z,37.72
2023-05-05T04:05:51.638Z,37.77
2023-05-05T04:06:51.608Z,37.73
2023-05-05T04:07:51.608Z,37.73
2023-05-05T04:08:51.597Z,37.73
2023-05-05T04:09:51.587Z,37.71
2023-05-05T04:10:51.607Z,37.70
2023-05-05T04:11:51.569Z,37.71
2023-05-05T04:12:51.580Z,37.70
2023-05-05T04:13:51.561Z,37.66
2023-05-05T04:14:51.549Z,37.68
2023-05-05T04:15:51.568Z,37.64
2023-05-05T04:16:51.556Z,37.67
2023-05-05T04:17:51.586Z,37.68
2023-05-05T04:18:51.520Z,37.68
2023-05-05T04:19:51.516Z,37.68
2023-05-05T04:20:51.524Z,37.63
2023-05-05T04:21:51.535Z,37.67
2023-05-05T04:22:52.878Z,37.60
2023-05-05T04:23:51.554Z,37.64
2023-05-05T04:24:51.545Z,37.60
2023-05-05T04:25:51.552Z,37.65
2023-05-05T04:26:51.579Z,37.59
2023-05-05T04:27:51.564Z,37.62
2023-05-05T04:28:51.562Z,37.64
2023-05-05T04:29:51.573Z,37.58
2023-05-05T04:30:51.622Z,37.64
2023-05-05T04:31:51.590Z,37.62
2023-05-05T04:32:51.628Z,37.63
2023-05-05T04:33:51.607Z,37.65
2023-05-05T04:34:51.611Z,37.61
2023-05-05T04:35:51.618Z,37.60
2023-05-05T04:36:51.617Z,37.58
2023-05-05T04:37:51.618Z,37.60
2023-05-05T04:38:51.722Z,37.54
2023-05-05T04:39:51.631Z,37.58
2023-05-05T04:40:51.639Z,37.58
2023-05-05T04:41:51.654Z,37.59
2023-05-05T04:42:51.693Z,37.53
2023-05-05T04:43:51.671Z,37.57
2023-05-05T04:44:51.676Z,37.54
2023-05-05T04:45:51.692Z,37.52
2023-05-05T04:46:51.797Z,37.50
2023-05-05T04:47:51.705Z,37.50
2023-05-05T04:48:51.736Z,37.53
2023-05-05T04:49:51.716Z,37.46
2023-05-05T04:50:51.719Z,37.45
2023-05-05T04:51:51.731Z,37.41
2023-05-05T04:52:52.762Z,37.44
2023-05-05T04:53:51.741Z,37.39
2023-05-05T04:54:51.744Z,37.42
2023-05-05T04:55:51.752Z,37.39
2023-05-05T04:56:51.740Z,37.41
2023-05-05T04:57:51.766Z,37.42
2023-05-05T04:58:51.773Z,37.38
2023-05-05T04:59:51.749Z,37.43
2023-05-05T05:00:51.752Z,37.41
2023-05-05T05:01:51.787Z,37.39
2023-05-05T05:02:51.809Z,37.39
2023-05-05T05:03:51.877Z,37.40
2023-05-05T05:04:51.774Z,37.41
2023-05-05T05:05:51.789Z,37.43
2023-05-05T05:06:51.792Z,37.38
2023-05-05T05:07:51.808Z,37.37
2023-05-05T05:08:51.813Z,37.37
2023-05-05T05:09:51.803Z,37.41
2023-05-05T05:10:51.800Z,37.37
2023-05-05T05:11:51.808Z,37.37
2023-05-05T05:12:52.258Z,37.41
2023-05-05T05:13:51.825Z,37.41
2023-05-05T05:14:51.856Z,37.37
2023-05-05T05:15:51.826Z,37.37
2023-05-05T05:16:51.919Z,37.36
2023-05-05T05:17:51.882Z,37.35
2023-05-05T05:18:51.836Z,37.36
2023-05-05T05:19:51.820Z,37.35
2023-05-05T05:20:51.826Z,37.41
2023-05-05T05:21:52.218Z,37.35
2023-05-05T05:22:51.841Z,37.39
2023-05-05T05:23:52.208Z,37.36
2023-05-05T05:24:51.887Z,37.41
2023-05-05T05:25:51.863Z,37.39
2023-05-05T05:26:51.856Z,37.40
2023-05-05T05:28:02.194Z,37.41
2023-05-05T05:28:52.217Z,37.45
2023-05-05T05:29:51.861Z,37.41
2023-05-05T05:30:51.877Z,37.42
2023-05-05T05:31:51.862Z,37.38
2023-05-05T05:32:51.853Z,37.41
2023-05-05T05:33:51.818Z,37.39
2023-05-05T05:34:51.802Z,37.39
2023-05-05T05:35:51.796Z,37.39
2023-05-05T05:36:51.781Z,37.49
2023-05-05T05:37:51.818Z,37.52
2023-05-05T05:38:51.771Z,37.46
2023-05-05T05:39:51.767Z,37.55
2023-05-05T05:40:51.769Z,37.54
2023-05-05T05:41:52.222Z,37.57
2023-05-05T05:42:51.737Z,37.64
2023-05-05T05:43:51.734Z,37.70
2023-05-05T05:44:51.728Z,38.09
2023-05-05T05:45:51.823Z,38.26
2023-05-05T05:46:51.747Z,38.15
2023-05-05T05:47:51.738Z,38.09
2023-05-05T05:48:51.708Z,38.08
2023-05-05T05:49:51.686Z,38.22
2023-05-05T05:50:52.079Z,38.44
2023-05-05T05:51:52.658Z,38.41
2023-05-05T05:52:50.764Z,38.46
2023-05-05T05:53:51.658Z,38.50
2023-05-05T05:54:51.651Z,38.47
2023-05-05T05:55:51.649Z,38.39
2023-05-05T05:56:51.724Z,38.35
2023-05-05T05:57:51.952Z,38.35
2023-05-05T05:58:51.618Z,38.50
2023-05-05T05:59:51.629Z,38.49
2023-05-05T06:00:59.037Z,38.52
2023-05-05T06:01:51.724Z,38.67
2023-05-05T06:04:07.386Z,38.83
2023-05-05T06:04:59.001Z,38.94
2023-05-05T06:05:54.772Z,39.06
2023-05-05T06:06:51.571Z,39.09
2023-05-05T06:07:52.548Z,39.23
2023-05-05T06:08:51.731Z,39.27
2023-05-05T06:10:22.638Z,39.36
2023-05-05T06:10:54.808Z,39.42
2023-05-05T06:11:51.736Z,39.47
2023-05-05T06:12:58.991Z,39.35
2023-05-05T06:13:54.783Z,39.77
2023-05-05T06:14:51.521Z,39.67
2023-05-05T06:17:07.137Z,39.86
2023-05-05T06:17:58.919Z,39.92
2023-05-05T06:18:52.477Z,39.95
2023-05-05T06:19:52.437Z,40.04
2023-05-05T06:20:51.513Z,40.19
2023-05-05T06:21:51.473Z,40.22
2023-05-05T06:22:51.463Z,40.28
2023-05-05T06:23:51.732Z,40.35
2023-05-05T06:24:51.439Z,40.37
2023-05-05T06:25:51.464Z,40.39
2023-05-05T06:26:51.765Z,40.41
2023-05-05T06:27:51.439Z,40.45
2023-05-05T06:28:51.505Z,40.49
2023-05-05T06:29:51.428Z,40.54
2023-05-05T06:30:51.409Z,40.62
2023-05-05T06:31:51.457Z,40.76
2023-05-05T06:32:51.451Z,40.83
2023-05-05T06:33:51.381Z,40.85
2023-05-05T06:34:51.401Z,40.97
2023-05-05T06:35:51.454Z,41.01
2023-05-05T06:36:54.608Z,40.97
2023-05-05T06:37:51.382Z,41.07
2023-05-05T06:38:51.773Z,41.15
2023-05-05T06:39:51.383Z,41.18
2023-05-05T06:40:51.356Z,41.25
2023-05-05T06:41:52.283Z,41.28
2023-05-05T06:42:51.331Z,41.36
2023-05-05T06:43:51.770Z,41.35
2023-05-05T06:44:51.305Z,41.44
2023-05-05T06:45:51.518Z,41.50
2023-05-05T06:46:58.762Z,41.54
2023-05-05T06:47:51.386Z,41.66
2023-05-05T06:48:51.750Z,41.81
2023-05-05T06:49:51.266Z,41.79
2023-05-05T06:50:51.260Z,41.80
2023-05-05T06:51:51.353Z,41.85
2023-05-05T06:52:51.253Z,41.89
2023-05-05T12:17:38.055Z,31.97
2023-05-05T12:18:39.008Z,30.70
2023-05-05T12:19:39.002Z,32.74
2023-05-05T12:20:38.990Z,31.83
2023-05-05T12:21:38.987Z,31.86
2023-05-05T12:22:39.004Z,32.19
2023-05-05T12:23:38.980Z,33.20
2023-05-05T12:24:38.957Z,32.63
2023-05-05T12:25:39.014Z,32.68
2023-05-05T12:26:38.949Z,33.00
2023-05-05T12:27:39.191Z,33.51
2023-05-05T12:28:38.926Z,33.72
2023-05-05T12:29:38.920Z,32.73
2023-05-05T12:30:38.957Z,32.05
2023-05-05T12:31:38.936Z,33.19
2023-05-05T12:32:38.940Z,32.35
2023-05-05T12:33:38.989Z,32.31
2023-05-05T12:34:38.909Z,32.38
2023-05-05T12:35:38.879Z,32.38
2023-05-05T12:36:38.894Z,32.21
2023-05-05T12:37:38.865Z,32.05
2023-05-05T12:38:38.860Z,32.84
2023-05-05T12:39:38.853Z,31.89
2023-05-05T12:40:38.844Z,32.05
2023-05-05T12:41:38.836Z,32.57
2023-05-05T12:42:38.823Z,32.91
2023-05-05T12:43:38.902Z,32.89
2023-05-05T12:44:38.804Z,31.36
2023-05-05T12:45:38.803Z,31.05
2023-05-05T12:46:39.030Z,32.05
2023-05-05T12:47:38.805Z,31.85
2023-05-05T12:48:39.204Z,31.74
2023-05-05T12:49:42.081Z,32.12
2023-05-05T12:50:39.216Z,31.88
2023-05-05T12:51:38.767Z,31.57
2023-05-05T12:52:38.757Z,32.58
2023-05-05T12:53:38.748Z,32.72
2023-05-05T12:54:38.743Z,32.93
2023-05-05T12:55:39.212Z,32.86
2023-05-05T12:56:38.753Z,32.95
2023-05-05T12:57:38.726Z,32.78
2023-05-05T12:58:38.712Z,32.24
2023-05-05T12:59:38.709Z,32.22
2023-05-05T13:00:38.702Z,32.33
2023-05-05T13:01:38.749Z,31.44
2023-05-05T13:02:38.795Z,31.76
2023-05-05T13:03:38.732Z,32.39
2023-05-05T13:04:38.680Z,32.68
2023-05-05T13:05:38.739Z,32.03
2023-05-05T13:06:38.710Z,31.97
2023-05-05T13:07:38.657Z,31.91
2023-05-05T13:08:38.643Z,31.67
2023-05-05T13:09:38.651Z,32.32
2023-05-05T13:10:38.639Z,32.18
2023-05-05T13:11:38.652Z,31.18
2023-05-05T13:12:38.662Z,32.35
2023-05-05T13:13:38.614Z,31.02
2023-05-05T13:14:38.604Z,31.06
2023-05-05T13:15:38.679Z,32.00
2023-05-05T13:16:38.689Z,30.79
2023-05-05T13:17:38.741Z,31.46
2023-05-05T13:18:38.699Z,32.02
2023-05-05T13:19:38.724Z,31.77
2023-05-05T13:20:38.693Z,31.86
2023-05-05T13:21:38.868Z,32.05
2023-05-05T13:22:38.785Z,32.03
2023-05-05T13:23:38.839Z,31.49
2023-05-05T13:24:50.641Z,31.45
2023-05-05T13:25:39.222Z,31.74
2023-05-05T13:26:39.718Z,30.34
2023-05-05T13:27:38.823Z,31.79
2023-05-05T13:28:38.829Z,32.30
2023-05-05T13:29:38.811Z,31.86
2023-05-05T13:30:38.810Z,32.07
2023-05-05T13:31:38.861Z,32.27
2023-05-05T13:32:38.832Z,32.34
2023-05-05T13:33:38.790Z,32.40
2023-05-05T13:34:38.773Z,32.46
2023-05-05T13:35:38.778Z,32.59
2023-05-05T13:36:38.763Z,32.56
2023-05-05T13:37:38.915Z,32.25
2023-05-05T13:38:38.751Z,31.90
2023-05-05T13:39:38.739Z,32.78
2023-05-05T13:40:38.741Z,32.68
2023-05-05T13:41:38.750Z,32.76
2023-05-05T13:42:38.716Z,33.03
2023-05-05T13:43:38.717Z,33.22
2023-05-05T13:44:38.718Z,33.16
2023-05-05T13:45:41.208Z,33.54
2023-05-05T13:46:38.700Z,32.97
2023-05-05T13:47:38.752Z,33.00
2023-05-05T13:48:38.668Z,31.32
2023-05-05T13:49:38.668Z,32.33
2023-05-05T13:50:38.658Z,32.79
2023-05-05T13:51:38.649Z,32.60
2023-05-05T13:52:38.640Z,32.98
2023-05-05T13:53:38.807Z,32.92
2023-05-05T13:54:38.618Z,32.04
2023-05-05T13:55:38.615Z,32.46
2023-05-05T13:56:38.614Z,32.64
2023-05-05T13:57:38.610Z,31.53
2023-05-05T13:58:38.587Z,31.82
2023-05-05T13:59:38.582Z,31.99
2023-05-05T14:00:39.357Z,32.06
2023-05-05T14:01:38.621Z,32.26
2023-05-05T14:02:38.576Z,32.93
2023-05-05T14:03:38.604Z,32.96
2023-05-05T14:04:38.594Z,32.48
2023-05-05T14:05:38.572Z,32.10
2023-05-05T14:06:38.581Z,32.55
2023-05-05T14:07:38.557Z,32.78
2023-05-05T14:08:38.569Z,31.97
2023-05-05T14:09:39.362Z,31.00
2023-05-05T14:10:38.503Z,31.31
2023-05-05T14:11:38.497Z,30.73
2023-05-05T14:12:38.549Z,31.75
2023-05-05T14:13:38.759Z,30.69
2023-05-05T14:14:38.464Z,30.73
2023-05-05T14:15:38.465Z,30.38
2023-05-05T14:16:38.514Z,31.29
2023-05-05T14:17:38.522Z,31.48
2023-05-05T14:18:38.437Z,30.96
2023-05-05T14:19:38.439Z,31.57
2023-05-05T14:20:38.428Z,31.60
2023-05-05T14:21:38.426Z,31.67
2023-05-05T14:22:38.405Z,31.74
2023-05-05T14:23:38.483Z,31.86
2023-05-05T14:24:38.500Z,32.00
2023-05-05T14:25:38.593Z,31.84
2023-05-05T14:26:38.611Z,30.92
2023-05-05T14:27:38.594Z,31.74
2023-05-05T14:28:38.767Z,31.85
2023-05-05T14:29:38.608Z,31.51
2023-05-05T14:30:38.610Z,31.78
2023-05-05T14:31:38.681Z,31.59
2023-05-05T14:32:38.704Z,31.74
2023-05-05T14:33:38.718Z,31.07
2023-05-05T14:34:39.737Z,31.14
2023-05-05T14:35:38.720Z,31.03
2023-05-05T14:36:38.734Z,31.03
2023-05-05T14:37:38.740Z,31.16
2023-05-05T14:38:38.758Z,30.74
2023-05-05T14:39:38.795Z,30.19
2023-05-05T14:40:38.804Z,30.20
2023-05-05T14:41:38.978Z,30.53
2023-05-05T14:42:38.935Z,31.25
2023-05-05T14:43:38.994Z,31.85
2023-05-05T14:44:39.036Z,31.59
2023-05-05T14:45:39.113Z,31.01
2023-05-05T14:46:39.101Z,30.70
2023-05-05T14:47:39.154Z,30.57
2023-05-05T14:48:39.165Z,31.30
2023-05-05T14:49:39.202Z,31.27
2023-05-05T14:50:39.246Z,31.77
2023-05-05T14:51:39.285Z,30.51
2023-05-05T14:52:39.342Z,31.01
2023-05-05T14:53:39.472Z,30.56
2023-05-05T14:54:39.483Z,30.51
2023-05-05T14:55:39.486Z,29.92
2023-05-05T14:56:39.493Z,29.99
2023-05-05T14:57:39.710Z,30.06
2023-05-05T14:58:39.521Z,30.28
2023-05-05T14:59:39.625Z,30.25
2023-05-05T15:00:39.637Z,30.24
2023-05-05T15:01:39.800Z,30.40
2023-05-05T15:02:39.804Z,30.62
2023-05-05T15:03:39.903Z,30.82
2023-05-05T15:04:40.283Z,31.20
2023-05-05T15:05:39.879Z,31.28
2023-05-05T15:06:39.865Z,31.66
2023-05-05T15:07:39.915Z,31.40
2023-05-05T15:08:39.961Z,31.15
2023-05-05T15:09:39.990Z,30.89
2023-05-05T15:10:40.010Z,30.67
2023-05-05T15:11:40.008Z,31.35
2023-05-05T15:12:40.058Z,31.28
2023-05-05T15:13:40.336Z,31.51
2023-05-05T15:14:40.116Z,31.77
2023-05-05T15:15:40.183Z,32.49
2023-05-05T15:16:40.386Z,32.32
2023-05-05T15:17:40.258Z,31.95
2023-05-05T15:18:40.292Z,31.80
2023-05-05T15:19:40.348Z,32.07
2023-05-05T15:20:40.426Z,31.77
2023-05-05T15:21:40.462Z,31.93
2023-05-05T15:22:40.503Z,32.01
2023-05-05T15:23:40.538Z,31.93
2023-05-05T15:24:40.620Z,31.59
2023-05-05T15:25:40.646Z,31.40
2023-05-05T15:26:40.682Z,31.47
2023-05-05T15:27:40.760Z,31.63
2023-05-05T15:28:40.809Z,31.66
2023-05-05T15:29:40.901Z,31.48
2023-05-05T15:30:40.930Z,31.48
2023-05-05T15:31:40.990Z,31.33
2023-05-05T15:32:41.076Z,31.14
2023-05-05T15:33:41.034Z,31.76
2023-05-05T15:34:41.095Z,31.60
2023-05-05T15:35:41.146Z,31.70
2023-05-05T15:36:41.193Z,31.68
2023-05-05T15:37:41.247Z,31.69
2023-05-05T15:38:41.258Z,31.87
2023-05-05T15:39:41.253Z,31.87
2023-05-05T15:40:41.297Z,31.97
2023-05-05T15:41:41.358Z,32.21
2023-05-05T15:42:41.418Z,31.68
2023-05-05T15:43:41.459Z,31.87
2023-05-05T15:44:41.508Z,32.02
2023-05-05T15:45:41.685Z,32.19
2023-05-05T15:46:41.656Z,32.29
2023-05-05T15:47:41.681Z,31.76
2023-05-05T15:48:41.693Z,31.48
2023-05-05T15:49:41.749Z,31.88
2023-05-05T15:50:41.802Z,31.91
2023-05-05T15:51:41.850Z,31.86
2023-05-05T15:52:41.896Z,31.78
2023-05-05T15:53:41.932Z,31.81
2023-05-05T15:54:41.997Z,31.66
2023-05-05T15:55:42.041Z,31.70
2023-05-05T15:56:42.102Z,31.62
2023-05-05T15:57:42.156Z,31.73
2023-05-05T15:58:42.245Z,31.46
2023-05-05T15:59:42.284Z,31.66
2023-05-05T16:00:42.337Z,31.77
2023-05-05T16:01:42.498Z,31.80
2023-05-05T16:02:42.522Z,31.77
2023-05-05T16:03:42.578Z,31.82
2023-05-05T16:04:42.604Z,31.82
2023-05-05T16:05:42.645Z,31.87
2023-05-05T16:06:42.671Z,31.87
2023-05-05T16:07:42.714Z,32.00
2023-05-05T16:08:42.744Z,31.95
2023-05-05T16:09:42.749Z,31.97
2023-05-05T16:10:42.778Z,32.01
2023-05-05T16:11:42.838Z,32.13
2023-05-05T16:12:42.928Z,32.08
2023-05-05T16:13:42.856Z,32.11
2023-05-05T16:14:42.875Z,32.21
2023-05-05T16:15:42.895Z,32.21
2023-05-05T16:16:43.031Z,32.32
2023-05-05T16:17:43.011Z,32.40
2023-05-05T16:18:42.958Z,32.52
2023-05-05T16:19:43.000Z,33.15
2023-05-05T16:20:43.014Z,33.19
2023-05-05T16:21:43.064Z,33.52
2023-05-05T16:22:43.102Z,33.72
2023-05-05T16:23:43.165Z,34.42
2023-05-05T16:24:44.368Z,33.87
2023-05-05T16:25:43.285Z,34.03
2023-05-05T16:26:43.312Z,33.85
2023-05-05T16:27:43.308Z,34.37
2023-05-05T16:28:43.387Z,34.09
2023-05-05T16:29:43.431Z,34.59
2023-05-05T16:30:43.474Z,33.77
2023-05-05T16:31:43.528Z,34.49
2023-05-05T16:32:43.529Z,34.14
2023-05-05T16:33:43.545Z,34.25
2023-05-05T16:34:43.503Z,34.09
2023-05-05T16:35:43.517Z,34.36
2023-05-05T16:36:44.445Z,34.10
2023-05-05T16:37:43.516Z,33.89
2023-05-05T16:38:43.513Z,34.32
2023-05-05T16:39:43.571Z,34.47
2023-05-05T16:40:43.607Z,34.75
2023-05-05T16:41:43.621Z,34.75
2023-05-05T16:42:44.673Z,34.81
2023-05-05T16:43:43.722Z,34.88
2023-05-05T16:44:43.748Z,34.95
2023-05-05T16:45:43.796Z,35.12
2023-05-05T16:46:44.009Z,35.15
2023-05-05T16:47:43.895Z,35.27
2023-05-05T16:48:43.894Z,35.34
2023-05-05T16:49:44.020Z,35.39
2023-05-05T16:50:43.932Z,35.53
2023-05-05T16:51:43.950Z,35.48
2023-05-05T16:52:43.960Z,35.55
2023-05-05T16:53:43.990Z,35.58
2023-05-05T16:54:44.005Z,35.67
2023-05-05T16:55:44.020Z,35.78
2023-05-05T16:56:44.029Z,35.84
2023-05-05T16:57:44.043Z,35.97
2023-05-05T16:58:44.062Z,36.04
2023-05-05T16:59:44.072Z,36.15
2023-05-05T17:00:44.085Z,36.28
2023-05-05T17:01:44.110Z,36.26
2023-05-05T17:02:44.156Z,36.37
2023-05-05T17:03:44.138Z,36.48
2023-05-05T17:04:44.155Z,36.49
2023-05-05T17:05:44.244Z,36.50
2023-05-05T17:06:44.141Z,36.56
2023-05-05T17:07:44.137Z,36.64
2023-05-05T17:08:44.139Z,36.80
2023-05-05T17:09:44.798Z,36.77
2023-05-05T17:10:44.155Z,36.81
2023-05-05T17:11:44.165Z,36.82
2023-05-05T17:12:44.213Z,36.87
2023-05-05T17:13:44.176Z,36.95
2023-05-05T17:14:44.183Z,37.00
2023-05-05T17:15:44.204Z,37.16
2023-05-05T17:16:44.267Z,37.14
2023-05-05T17:17:44.200Z,37.15
2023-05-05T17:18:44.214Z,37.16
2023-05-05T17:19:44.203Z,37.20
2023-05-05T17:20:44.213Z,37.19
2023-05-05T17:21:44.310Z,37.18
2023-05-05T17:22:44.224Z,37.15
2023-05-05T17:23:44.237Z,36.36
2023-05-05T17:24:44.260Z,36.80
2023-05-05T17:25:44.281Z,36.56
2023-05-05T17:26:44.295Z,36.39
2023-05-05T17:27:44.320Z,36.31
2023-05-05T17:28:44.335Z,36.22
2023-05-05T17:29:44.374Z,36.24
2023-05-05T17:30:44.421Z,36.10
2023-05-05T17:31:44.469Z,36.19
2023-05-05T17:32:44.494Z,36.13
2023-05-05T17:33:44.505Z,36.05
2023-05-05T17:34:44.550Z,36.13
2023-05-05T17:35:44.580Z,36.14
2023-05-05T17:36:44.622Z,35.68
2023-05-05T17:37:44.753Z,35.05
2023-05-05T17:38:44.707Z,34.29
2023-05-05T17:39:44.774Z,34.45
2023-05-05T17:40:45.459Z,35.09
2023-05-05T17:41:45.647Z,35.27
2023-05-05T17:42:45.563Z,35.07
2023-05-05T17:43:45.592Z,35.20
2023-05-05T17:44:47.011Z,35.36
2023-05-05T17:45:45.131Z,35.47
2023-05-05T17:46:45.699Z,35.56
2023-05-05T17:47:45.317Z,35.66
2023-05-05T17:48:44.977Z,35.78
2023-05-05T17:49:44.952Z,35.92
2023-05-05T17:50:44.944Z,35.98
2023-05-05T17:51:44.931Z,36.05
2023-05-05T17:52:44.924Z,36.18
2023-05-05T17:53:45.080Z,36.31
2023-05-05T17:54:44.914Z,36.36
2023-05-05T17:55:44.909Z,36.39
2023-05-05T17:56:44.899Z,36.52
2023-05-05T17:57:44.891Z,36.47
2023-05-05T17:58:44.869Z,36.58
2023-05-05T17:59:44.871Z,36.69
2023-05-05T18:00:44.866Z,36.74
2023-05-05T18:01:44.913Z,36.76
2023-05-05T18:02:44.877Z,36.82
2023-05-05T18:03:44.885Z,36.91
2023-05-05T18:04:44.837Z,36.98
2023-05-05T18:05:44.835Z,37.01
2023-05-05T18:06:44.834Z,37.12
2023-05-05T18:07:44.812Z,37.08
2023-05-05T18:08:44.824Z,37.19
2023-05-05T18:09:44.919Z,37.25
2023-05-05T18:10:44.793Z,37.30
2023-05-05T18:11:44.783Z,37.32
2023-05-05T18:12:44.813Z,37.46
2023-05-05T18:13:44.784Z,37.54
2023-05-05T18:14:44.764Z,37.43
2023-05-05T18:15:44.790Z,37.52
2023-05-05T18:16:44.761Z,37.63
2023-05-05T18:17:44.779Z,37.64
2023-05-05T18:18:44.818Z,37.62